createdAt,value
2017-08-12T00:01:54.059Z,91.84
2017-08-12T00:04:21.460Z,91.76
2017-08-12T00:06:48.887Z,91.79
2017-08-12T00:09:16.294Z,91.80
2017-08-12T00:11:43.703Z,91.87
2017-08-12T00:14:11.127Z,91.72
2017-08-12T00:16:38.535Z,91.76
2017-08-12T00:19:05.927Z,91.60
2017-08-12T00:21:33.360Z,91.66
2017-08-12T00:24:00.777Z,91.74
2017-08-12T00:26:28.190Z,91.75
2017-08-12T00:28:55.603Z,91.69
2017-08-12T00:31:23.023Z,91.64
2017-08-12T00:33:50.416Z,91.51
2017-08-12T00:36:17.835Z,91.54
2017-08-12T00:38:45.246Z,91.59
2017-08-12T00:41:12.673Z,91.50
2017-08-12T00:43:40.101Z,91.52
2017-08-12T00:46:07.499Z,91.03
2017-08-12T00:48:34.899Z,91.02
2017-08-12T00:51:02.337Z,91.04
2017-08-12T00:53:29.750Z,91.03
2017-08-12T00:55:57.158Z,91.08
2017-08-12T00:58:24.604Z,91.16
2017-08-12T01:00:51.998Z,91.20
2017-08-12T01:03:19.426Z,91.22
2017-08-12T01:05:46.875Z,91.26
2017-08-12T01:08:14.294Z,91.19
2017-08-12T01:10:41.711Z,90.95
2017-08-12T01:13:09.125Z,90.96
2017-08-12T01:15:36.544Z,90.69
2017-08-12T01:18:03.955Z,90.71
2017-08-12T01:20:31.387Z,90.74
2017-08-12T01:22:58.802Z,90.92
2017-08-12T01:25:26.200Z,90.26
2017-08-12T01:27:53.626Z,90.39
2017-08-12T01:30:21.032Z,89.97
2017-08-12T01:32:48.440Z,90.27
2017-08-12T01:35:15.875Z,90.35
2017-08-12T01:37:43.299Z,90.55
2017-08-12T01:40:10.719Z,89.70
2017-08-12T01:42:38.147Z,89.40
2017-08-12T01:45:05.563Z,89.94
2017-08-12T01:47:32.976Z,90.36
2017-08-12T01:50:00.448Z,90.51
2017-08-12T01:52:27.891Z,90.73
2017-08-12T01:54:55.312Z,90.89
2017-08-12T01:57:22.726Z,90.77
2017-08-12T01:59:50.131Z,89.56
2017-08-12T02:02:17.572Z,90.12
2017-08-12T02:04:45.004Z,89.14
2017-08-12T02:07:12.410Z,89.36
2017-08-12T02:09:39.827Z,88.67
2017-08-12T02:12:07.269Z,88.19
2017-08-12T02:14:34.711Z,89.19
2017-08-12T02:17:02.118Z,89.35
2017-08-12T02:19:29.562Z,89.40
2017-08-12T02:21:57.431Z,89.41
2017-08-12T02:24:24.835Z,88.15
2017-08-12T02:26:52.256Z,88.36
2017-08-12T02:29:19.682Z,88.16
2017-08-12T02:31:47.091Z,88.25
2017-08-12T02:34:14.515Z,88.07
2017-08-12T02:36:41.972Z,88.23
2017-08-12T02:39:09.354Z,88.46
2017-08-12T02:41:36.779Z,89.00
2017-08-12T02:44:04.210Z,87.26
2017-08-12T02:46:31.638Z,87.55
2017-08-12T02:48:59.082Z,86.74
2017-08-12T02:51:26.496Z,85.71
2017-08-12T02:53:53.892Z,86.73
2017-08-12T02:56:21.343Z,87.23
2017-08-12T02:58:48.753Z,87.58
2017-08-12T03:01:16.155Z,87.67
2017-08-12T03:03:43.587Z,87.40
2017-08-12T03:06:11.018Z,85.62
2017-08-12T03:08:38.445Z,86.00
2017-08-12T03:11:05.866Z,86.04
2017-08-12T03:13:33.305Z,84.85
2017-08-12T03:16:00.711Z,84.08
2017-08-12T03:18:28.139Z,82.83
2017-08-12T03:20:55.558Z,84.10
2017-08-12T03:23:22.994Z,84.14
2017-08-12T03:25:50.394Z,83.77
2017-08-12T03:28:17.806Z,83.63
2017-08-12T03:30:45.193Z,83.48
2017-08-12T03:33:12.604Z,82.46
2017-08-12T03:35:40.011Z,83.56
2017-08-12T03:38:07.424Z,83.19
2017-08-12T03:40:34.831Z,83.76
2017-08-12T03:43:02.243Z,83.94
2017-08-12T03:45:29.651Z,84.24
2017-08-12T03:47:57.079Z,83.81
2017-08-12T03:50:24.493Z,83.60
2017-08-12T03:52:51.912Z,83.14
2017-08-12T03:55:19.348Z,82.79
2017-08-12T03:57:46.779Z,83.34
2017-08-12T04:00:14.171Z,83.38
2017-08-12T04:02:41.603Z,83.96
2017-08-12T04:05:09.008Z,83.12
2017-08-12T04:07:36.408Z,83.22
2017-08-12T04:10:03.847Z,83.08
2017-08-12T04:12:31.235Z,83.40
2017-08-12T04:14:58.712Z,82.93
2017-08-12T04:17:26.128Z,83.83
2017-08-12T04:19:53.572Z,83.38
2017-08-12T04:22:20.971Z,83.46
2017-08-12T04:24:48.427Z,84.33
2017-08-12T04:27:15.856Z,84.17
2017-08-12T04:29:43.267Z,84.96
2017-08-12T04:32:10.715Z,84.33
2017-08-12T04:34:38.119Z,85.01
2017-08-12T04:37:05.544Z,84.22
2017-08-12T04:39:32.999Z,84.20
2017-08-12T04:42:00.418Z,85.20
2017-08-12T04:44:27.826Z,84.81
2017-08-12T04:46:55.299Z,85.32
2017-08-12T04:49:22.730Z,86.57
2017-08-12T04:51:50.124Z,87.08
2017-08-12T04:54:17.531Z,85.86
2017-08-12T04:56:44.989Z,86.67
2017-08-12T04:59:12.416Z,85.93
2017-08-12T05:01:40.828Z,86.31
2017-08-12T05:04:08.468Z,85.35
2017-08-12T05:06:35.879Z,85.37
2017-08-12T05:09:03.300Z,84.71
2017-08-12T05:11:30.735Z,83.76
2017-08-12T05:13:58.144Z,84.19
2017-08-12T05:16:25.555Z,84.89
2017-08-12T05:18:52.991Z,85.28
2017-08-12T05:21:20.398Z,85.13
2017-08-12T05:23:47.838Z,86.26
2017-08-12T05:26:15.215Z,85.96
2017-08-12T05:28:42.616Z,85.32
2017-08-12T05:31:10.035Z,85.76
2017-08-12T05:33:37.736Z,85.94
2017-08-12T05:36:05.175Z,86.37
2017-08-12T05:38:32.587Z,87.25
2017-08-12T05:40:59.997Z,87.83
2017-08-12T05:43:27.399Z,87.51
2017-08-12T05:45:54.812Z,87.37
2017-08-12T05:48:22.227Z,86.99
2017-08-12T05:50:49.627Z,86.70
2017-08-12T05:53:17.044Z,85.78
2017-08-12T05:55:44.471Z,85.84
2017-08-12T05:58:11.882Z,86.47
2017-08-12T06:00:39.303Z,87.41
2017-08-12T06:03:06.723Z,87.29
2017-08-12T06:05:34.847Z,87.82
2017-08-12T06:08:02.282Z,88.13
2017-08-12T06:10:29.752Z,88.25
2017-08-12T06:12:57.139Z,88.05
2017-08-12T06:15:24.568Z,87.19
2017-08-12T06:17:51.987Z,85.53
2017-08-12T06:20:19.369Z,86.31
2017-08-12T06:22:46.778Z,86.49
2017-08-12T06:25:14.249Z,86.81
2017-08-12T06:27:41.689Z,87.63
2017-08-12T06:30:09.101Z,87.42
2017-08-12T06:32:36.516Z,87.56
2017-08-12T06:35:03.947Z,87.33
2017-08-12T06:37:31.351Z,87.36
2017-08-12T06:39:58.770Z,87.39
2017-08-12T06:42:26.222Z,86.76
2017-08-12T06:44:53.659Z,86.94
2017-08-12T06:47:21.107Z,87.29
2017-08-12T06:49:48.976Z,87.21
2017-08-12T06:52:16.406Z,87.40
2017-08-12T06:54:43.811Z,87.01
2017-08-12T06:57:11.212Z,87.06
2017-08-12T06:59:38.635Z,87.27
2017-08-12T07:02:06.049Z,86.58
2017-08-12T07:04:33.448Z,86.34
2017-08-12T07:07:00.887Z,85.92
2017-08-12T07:09:28.310Z,85.71
2017-08-12T07:11:55.715Z,86.07
2017-08-12T07:14:23.126Z,86.10
2017-08-12T07:16:50.539Z,85.71
2017-08-12T07:19:17.941Z,86.51
2017-08-12T07:21:45.362Z,86.54
2017-08-12T07:24:12.763Z,86.53
2017-08-12T07:26:40.167Z,86.78
2017-08-12T07:29:07.580Z,86.14
2017-08-12T07:31:35.011Z,86.28
2017-08-12T07:34:02.427Z,86.19
2017-08-12T07:36:29.849Z,86.28
2017-08-12T07:38:57.283Z,86.40
2017-08-12T07:41:24.682Z,86.41
2017-08-12T07:43:52.099Z,86.37
2017-08-12T07:46:19.511Z,85.88
2017-08-12T07:48:46.925Z,86.15
2017-08-12T07:51:14.343Z,86.07
2017-08-12T07:53:41.735Z,86.53
2017-08-12T07:56:09.151Z,86.72
2017-08-12T07:58:36.572Z,86.29
2017-08-12T08:01:03.972Z,86.96
2017-08-12T08:03:31.388Z,87.33
2017-08-12T08:05:58.811Z,87.36
2017-08-12T08:08:26.215Z,87.70
2017-08-12T08:10:53.663Z,88.52
2017-08-12T08:13:21.078Z,88.69
2017-08-12T08:15:48.478Z,88.91
2017-08-12T08:18:15.897Z,88.84
2017-08-12T08:20:43.307Z,88.72
2017-08-12T08:23:10.707Z,89.07
2017-08-12T08:25:38.099Z,89.20
2017-08-12T08:28:05.514Z,89.17
2017-08-12T08:30:32.918Z,89.25
2017-08-12T08:33:00.359Z,90.09
2017-08-12T08:35:27.766Z,90.56
2017-08-12T08:37:55.168Z,90.73
2017-08-12T08:40:22.563Z,90.44
2017-08-12T08:42:50.025Z,90.52
2017-08-12T08:45:17.453Z,90.60
2017-08-12T08:47:44.862Z,90.58
2017-08-12T08:50:12.284Z,90.35
2017-08-12T08:52:39.678Z,90.58
2017-08-12T08:55:07.085Z,91.11
2017-08-12T08:57:34.496Z,90.74
2017-08-12T09:00:01.915Z,90.51
2017-08-12T09:02:29.315Z,90.35
2017-08-12T09:04:56.758Z,90.03
2017-08-12T09:07:24.155Z,89.78
2017-08-12T09:09:51.555Z,89.97
2017-08-12T09:12:18.992Z,89.45
2017-08-12T09:14:46.408Z,89.70
2017-08-12T09:17:13.810Z,89.17
2017-08-12T09:19:41.273Z,89.21
2017-08-12T09:22:08.679Z,88.68
2017-08-12T09:24:36.080Z,88.60
2017-08-12T09:27:03.521Z,88.87
2017-08-12T09:29:30.919Z,88.71
2017-08-12T09:31:58.320Z,88.65
2017-08-12T09:34:25.727Z,88.95
2017-08-12T09:36:53.131Z,88.73
2017-08-12T09:39:20.526Z,89.11
2017-08-12T09:41:47.940Z,89.34
2017-08-12T09:44:15.339Z,89.73
2017-08-12T09:46:42.735Z,90.10
2017-08-12T09:49:10.163Z,90.10
2017-08-12T09:51:37.568Z,90.03
2017-08-12T09:54:04.963Z,89.32
2017-08-12T09:56:32.379Z,90.32
2017-08-12T09:58:59.783Z,90.74
2017-08-12T10:01:27.184Z,91.11
2017-08-12T10:03:54.600Z,91.32
2017-08-12T10:06:21.995Z,91.18
2017-08-12T10:08:49.403Z,91.37
2017-08-12T10:11:16.818Z,91.17
2017-08-12T10:13:44.225Z,90.93
2017-08-12T10:16:11.619Z,90.86
2017-08-12T10:18:39.031Z,90.89
2017-08-12T10:21:06.432Z,91.00
2017-08-12T10:23:33.832Z,90.36
2017-08-12T10:26:01.243Z,90.41
2017-08-12T10:28:28.651Z,90.25
2017-08-12T10:30:56.047Z,90.39
2017-08-12T10:33:23.470Z,90.47
2017-08-12T10:35:50.871Z,90.49
2017-08-12T10:38:18.280Z,90.37
2017-08-12T10:40:45.691Z,89.93
2017-08-12T10:43:13.092Z,89.52
2017-08-12T10:45:40.488Z,89.81
2017-08-12T10:48:07.906Z,90.11
2017-08-12T10:50:35.311Z,89.81
2017-08-12T10:53:02.698Z,89.73
2017-08-12T10:55:30.111Z,89.89
2017-08-12T10:57:57.502Z,89.90
2017-08-12T11:00:24.899Z,89.82
2017-08-12T11:02:52.322Z,89.93
2017-08-12T11:05:19.723Z,89.36
2017-08-12T11:07:47.138Z,89.57
2017-08-12T11:10:14.555Z,89.73
2017-08-12T11:12:41.955Z,88.65
2017-08-12T11:15:09.359Z,89.16
2017-08-12T11:17:36.779Z,89.00
2017-08-12T11:20:04.179Z,88.74
2017-08-12T11:22:31.572Z,89.13
2017-08-12T11:24:59.119Z,89.52
2017-08-12T11:27:26.507Z,88.86
2017-08-12T11:29:53.904Z,88.71
2017-08-12T11:32:21.305Z,88.99
2017-08-12T11:34:48.700Z,89.03
2017-08-12T11:37:16.091Z,89.36
2017-08-12T11:39:43.507Z,89.54
2017-08-12T11:42:10.895Z,89.52
2017-08-12T11:44:38.291Z,89.55
2017-08-12T11:47:05.731Z,89.70
2017-08-12T11:49:33.123Z,89.82
2017-08-12T11:52:00.517Z,89.67
2017-08-12T11:54:27.926Z,89.62
2017-08-12T11:56:55.315Z,89.59
2017-08-12T11:59:22.711Z,89.42
2017-08-12T12:01:50.123Z,89.37
2017-08-12T12:04:17.511Z,89.27
2017-08-12T12:06:44.915Z,89.49
2017-08-12T12:09:12.319Z,89.43
2017-08-12T12:11:39.711Z,89.35
2017-08-12T12:14:07.141Z,89.46
2017-08-12T12:16:34.603Z,89.01
2017-08-12T12:19:02.032Z,88.72
2017-08-12T12:21:29.417Z,89.14
2017-08-12T12:23:56.829Z,89.50
2017-08-12T12:26:24.223Z,89.43
2017-08-12T12:28:52.464Z,89.69
2017-08-12T12:31:19.883Z,89.59
2017-08-12T12:33:47.275Z,88.91
2017-08-12T12:36:14.707Z,88.90
2017-08-12T12:38:42.124Z,88.44
2017-08-12T12:41:09.516Z,88.26
2017-08-12T12:43:36.908Z,88.58
2017-08-12T12:46:04.326Z,89.28
2017-08-12T12:48:31.719Z,89.76
2017-08-12T12:50:59.115Z,90.02
2017-08-12T12:53:26.528Z,89.55
2017-08-12T12:55:53.923Z,89.66
2017-08-12T12:58:21.319Z,89.00
2017-08-12T13:00:48.728Z,88.70
2017-08-12T13:03:16.123Z,88.96
2017-08-12T13:05:43.515Z,88.33
2017-08-12T13:08:10.927Z,89.06
2017-08-12T13:10:38.327Z,89.13
2017-08-12T13:13:05.733Z,89.63
2017-08-12T13:15:33.139Z,89.16
2017-08-12T13:18:00.532Z,88.92
2017-08-12T13:20:27.931Z,88.43
2017-08-12T13:22:55.351Z,87.53
2017-08-12T13:25:22.754Z,87.72
2017-08-12T13:27:50.147Z,87.94
2017-08-12T13:30:17.555Z,88.34
2017-08-12T13:32:44.946Z,89.02
2017-08-12T13:35:12.343Z,88.52
2017-08-12T13:37:39.743Z,88.59
2017-08-12T13:40:07.139Z,89.29
2017-08-12T13:42:34.536Z,89.51
2017-08-12T13:45:01.935Z,89.38
2017-08-12T13:47:29.326Z,89.14
2017-08-12T13:49:56.714Z,89.19
2017-08-12T13:52:24.127Z,88.66
2017-08-12T13:54:51.520Z,89.06
2017-08-12T13:57:18.912Z,88.37
2017-08-12T13:59:46.312Z,88.45
2017-08-12T14:02:13.703Z,88.14
2017-08-12T14:04:41.095Z,87.96
2017-08-12T14:07:08.494Z,87.99
2017-08-12T14:09:35.887Z,88.16
2017-08-12T14:12:03.279Z,87.30
2017-08-12T14:14:30.687Z,87.19
2017-08-12T14:16:58.074Z,87.24
2017-08-12T14:19:25.464Z,86.26
2017-08-12T14:21:52.863Z,86.35
2017-08-12T14:24:20.255Z,86.77
2017-08-12T14:26:47.647Z,86.25
2017-08-12T14:29:15.059Z,84.70
2017-08-12T14:31:42.451Z,85.75
2017-08-12T14:34:09.839Z,83.69
2017-08-12T14:36:37.248Z,83.97
2017-08-12T14:39:04.634Z,84.23
2017-08-12T14:41:32.027Z,83.30
2017-08-12T14:43:59.433Z,83.90
2017-08-12T14:46:26.825Z,83.34
2017-08-12T14:48:54.215Z,83.64
2017-08-12T14:51:21.635Z,84.35
2017-08-12T14:53:49.028Z,83.83
2017-08-12T14:56:16.428Z,83.58
2017-08-12T14:58:43.839Z,83.71
2017-08-12T15:01:11.227Z,83.65
2017-08-12T15:03:38.628Z,83.69
2017-08-12T15:06:06.026Z,83.65
2017-08-12T15:08:33.419Z,83.32
2017-08-12T15:11:00.811Z,84.09
2017-08-12T15:13:28.214Z,84.07
2017-08-12T15:15:55.608Z,84.67
2017-08-12T15:18:22.999Z,84.63
2017-08-12T15:20:50.426Z,84.09
2017-08-12T15:23:17.819Z,83.76
2017-08-12T15:25:45.210Z,84.52
2017-08-12T15:28:12.618Z,84.71
2017-08-12T15:30:40.013Z,84.92
2017-08-12T15:33:07.414Z,84.67
2017-08-12T15:35:34.815Z,84.65
2017-08-12T15:38:02.210Z,85.03
2017-08-12T15:40:29.606Z,85.23
2017-08-12T15:42:57.023Z,84.60
2017-08-12T15:45:24.414Z,84.99
2017-08-12T15:47:51.804Z,84.86
2017-08-12T15:50:19.215Z,84.45
2017-08-12T15:52:46.607Z,83.88
2017-08-12T15:55:13.999Z,83.81
2017-08-12T15:57:41.403Z,83.94
2017-08-12T16:00:08.795Z,83.86
2017-08-12T16:02:36.182Z,84.19
2017-08-12T16:05:03.596Z,84.26
2017-08-12T16:07:30.990Z,83.64
2017-08-12T16:09:58.386Z,84.38
2017-08-12T16:12:25.795Z,83.99
2017-08-12T16:14:53.190Z,83.77
2017-08-12T16:17:20.576Z,83.46
2017-08-12T16:19:47.992Z,83.47
2017-08-12T16:22:15.394Z,83.12
2017-08-12T16:24:42.785Z,83.51
2017-08-12T16:27:10.194Z,83.48
2017-08-12T16:29:37.592Z,83.64
2017-08-12T16:32:04.988Z,83.81
2017-08-12T16:34:32.391Z,83.34
2017-08-12T16:36:59.779Z,83.47
2017-08-12T16:39:27.167Z,83.86
2017-08-12T16:41:54.567Z,84.13
2017-08-12T16:44:21.958Z,85.14
2017-08-12T16:46:49.343Z,85.88
2017-08-12T16:49:16.751Z,85.94
2017-08-12T16:51:44.151Z,86.85
2017-08-12T16:54:11.535Z,87.25
2017-08-12T16:56:38.947Z,87.99
2017-08-12T16:59:06.351Z,88.98
2017-08-12T17:01:33.740Z,89.63
2017-08-12T17:04:01.153Z,89.91
2017-08-12T17:06:28.550Z,90.33
2017-08-12T17:08:55.943Z,90.62
2017-08-12T17:11:23.368Z,90.49
2017-08-12T17:13:50.763Z,90.18
2017-08-12T17:16:18.156Z,90.41
2017-08-12T17:18:45.562Z,90.37
2017-08-12T17:21:12.959Z,90.09
2017-08-12T17:23:40.349Z,89.83
2017-08-12T17:26:07.751Z,89.82
2017-08-12T17:28:35.155Z,89.33
2017-08-12T17:31:02.548Z,89.50
2017-08-12T17:33:29.960Z,89.28
2017-08-12T17:35:57.347Z,89.33
2017-08-12T17:38:24.738Z,88.62
2017-08-12T17:40:52.146Z,88.64
2017-08-12T17:43:19.536Z,88.77
2017-08-12T17:45:46.926Z,89.02
2017-08-12T17:48:14.338Z,88.65
2017-08-12T17:50:41.738Z,88.43
2017-08-12T17:53:09.136Z,88.65
2017-08-12T17:55:36.548Z,88.64
2017-08-12T17:58:03.939Z,88.31
2017-08-12T18:00:31.338Z,88.10
2017-08-12T18:02:58.746Z,88.18
2017-08-12T18:05:26.150Z,88.11
2017-08-12T18:07:53.538Z,88.12
2017-08-12T18:10:20.943Z,88.70
2017-08-12T18:12:48.334Z,88.38
2017-08-12T18:15:15.726Z,88.59
2017-08-12T18:17:43.136Z,88.59
2017-08-12T18:20:10.526Z,88.73
2017-08-12T18:22:37.917Z,88.79
2017-08-12T18:25:05.324Z,89.12
2017-08-12T18:27:32.715Z,89.13
2017-08-12T18:30:00.119Z,89.01
2017-08-12T18:32:27.524Z,88.83
2017-08-12T18:34:54.943Z,88.66
2017-08-12T18:37:22.335Z,89.14
2017-08-12T18:39:49.768Z,89.45
2017-08-12T18:42:17.171Z,89.73
2017-08-12T18:44:44.560Z,89.90
2017-08-12T18:47:11.960Z,90.01
2017-08-12T18:49:39.362Z,90.04
2017-08-12T18:52:06.763Z,90.07
2017-08-12T18:54:34.167Z,90.12
2017-08-12T18:57:01.557Z,90.16
2017-08-12T18:59:28.947Z,90.00
2017-08-12T19:01:56.362Z,89.99
2017-08-12T19:04:23.755Z,90.03
2017-08-12T19:06:51.147Z,89.97
2017-08-12T19:09:18.550Z,90.01
2017-08-12T19:11:45.943Z,90.03
2017-08-12T19:14:13.336Z,90.08
2017-08-12T19:16:40.751Z,89.88
2017-08-12T19:19:08.139Z,89.58
2017-08-12T19:21:35.528Z,89.20
2017-08-12T19:24:02.940Z,89.32
2017-08-12T19:26:30.357Z,89.71
2017-08-12T19:28:57.727Z,89.81
2017-08-12T19:31:25.135Z,89.75
2017-08-12T19:33:52.535Z,89.50
2017-08-12T19:36:19.923Z,89.94
2017-08-12T19:38:47.341Z,89.83
2017-08-12T19:41:14.732Z,89.77
2017-08-12T19:43:42.123Z,90.04
2017-08-12T19:46:09.539Z,89.86
2017-08-12T19:48:36.927Z,90.31
2017-08-12T19:51:04.318Z,90.91
2017-08-12T19:53:31.867Z,91.05
2017-08-12T19:55:59.261Z,91.42
2017-08-12T19:58:26.656Z,91.49
2017-08-12T20:00:54.054Z,91.53
2017-08-12T20:03:21.444Z,91.56
2017-08-12T20:05:48.871Z,91.67
2017-08-12T20:08:16.275Z,91.64
2017-08-12T20:10:43.696Z,91.64
2017-08-12T20:13:11.122Z,91.85
2017-08-12T20:15:38.506Z,91.92
2017-08-12T20:18:05.927Z,91.53
2017-08-12T20:20:33.340Z,91.75
2017-08-12T20:23:00.732Z,91.64
2017-08-12T20:25:28.142Z,91.81
2017-08-12T20:27:55.546Z,91.62
2017-08-12T20:30:23.320Z,91.65
2017-08-12T20:32:50.711Z,91.43
2017-08-12T20:35:18.128Z,91.26
2017-08-12T20:37:45.521Z,91.41
2017-08-12T20:40:12.925Z,91.40
2017-08-12T20:42:40.591Z,91.59
2017-08-12T20:45:07.982Z,91.38
2017-08-12T20:47:35.387Z,91.42
2017-08-12T20:50:02.806Z,91.60
2017-08-12T20:52:30.219Z,91.57
2017-08-12T20:54:57.631Z,91.74
2017-08-12T20:57:25.046Z,91.74
2017-08-12T20:59:52.474Z,91.41
2017-08-12T21:02:19.878Z,91.62
2017-08-12T21:04:47.273Z,91.58
2017-08-12T21:07:14.685Z,91.47
2017-08-12T21:09:42.144Z,91.19
2017-08-12T21:12:09.524Z,91.36
2017-08-12T21:14:36.941Z,91.32
2017-08-12T21:17:04.340Z,91.26
2017-08-12T21:19:31.773Z,91.06
2017-08-12T21:21:59.177Z,91.22
2017-08-12T21:24:26.567Z,91.16
2017-08-12T21:26:53.962Z,91.36
2017-08-12T21:29:21.355Z,91.22
2017-08-12T21:31:48.763Z,91.33
2017-08-12T21:34:16.151Z,91.52
2017-08-12T21:36:43.544Z,91.64
2017-08-12T21:39:10.957Z,91.47
2017-08-12T21:41:38.351Z,91.64
2017-08-12T21:44:05.750Z,91.71
2017-08-12T21:46:33.147Z,91.62
2017-08-12T21:49:00.547Z,91.69
2017-08-12T21:51:27.940Z,91.71
2017-08-12T21:53:55.342Z,91.73
2017-08-12T21:56:22.731Z,91.53
2017-08-12T21:58:50.130Z,91.60
2017-08-12T22:01:17.532Z,91.57
2017-08-12T22:03:44.922Z,91.58
2017-08-12T22:06:12.323Z,91.66
2017-08-12T22:08:39.733Z,91.37
2017-08-12T22:11:07.130Z,91.42
2017-08-12T22:13:34.537Z,91.37
2017-08-12T22:16:01.932Z,91.29
2017-08-12T22:18:29.324Z,91.38
2017-08-12T22:20:56.720Z,91.46
2017-08-12T22:23:24.107Z,91.55
2017-08-12T22:25:51.503Z,91.33
2017-08-12T22:28:18.896Z,91.18
2017-08-12T22:30:46.291Z,91.31
2017-08-12T22:33:13.684Z,91.05
2017-08-12T22:35:41.075Z,91.20
2017-08-12T22:38:08.469Z,91.28
2017-08-12T22:40:35.872Z,91.46
2017-08-12T22:43:03.302Z,91.07
2017-08-12T22:45:30.695Z,91.36
2017-08-12T22:47:58.084Z,91.25
2017-08-12T22:50:25.491Z,91.40
2017-08-12T22:52:52.887Z,91.55
2017-08-12T22:55:20.278Z,91.63
2017-08-12T22:57:47.675Z,91.59
2017-08-12T23:00:15.072Z,91.53
2017-08-12T23:02:42.483Z,91.41
2017-08-12T23:05:09.871Z,91.24
2017-08-12T23:07:37.275Z,91.21
2017-08-12T23:10:04.667Z,91.43
2017-08-12T23:12:32.063Z,91.40
2017-08-12T23:14:59.471Z,91.36
2017-08-12T23:17:26.862Z,91.49
2017-08-12T23:19:54.258Z,91.58
2017-08-12T23:22:21.659Z,91.55
2017-08-12T23:24:49.060Z,91.48
2017-08-12T23:27:16.451Z,91.38
2017-08-12T23:29:43.846Z,91.29
2017-08-12T23:32:11.235Z,91.45
2017-08-12T23:34:38.625Z,91.11
2017-08-12T23:37:06.018Z,91.37
2017-08-12T23:39:33.410Z,90.75
2017-08-12T23:42:00.820Z,91.03
2017-08-12T23:44:28.203Z,91.25
2017-08-12T23:46:55.599Z,91.42
2017-08-12T23:49:22.992Z,91.56
2017-08-12T23:51:50.388Z,91.49
2017-08-12T23:54:17.780Z,91.54
2017-08-12T23:56:45.183Z,91.54
2017-08-12T23:59:12.571Z,91.62
